METAR Data
IDs: Format: Raw Decoded Include TAF

Data at: 2136 UTC 18 Sep 2018

KADG 182053Z AUTO 35008KT 10SM FEW060 29/17 A2990 RMK AO2 WSHFT 2025 SLP123 T02890172 55009 TSNO
KADG 182045Z AUTO 36008KT 10SM FEW060 28/18 A2990 RMK AO2 WSHFT 2025 T02830178 TSNO
KADG 181953Z AUTO 31008G16KT 10SM CLR 31/18 A2990 RMK AO2 SLP121 T03110183 TSNO
KADG 181853Z AUTO 29008KT 10SM FEW050 SCT075 31/19 A2991 RMK AO2 SLP126 T03110189 TSNO
KADG 181753Z AUTO 33008KT 10SM SCT050 31/18 A2993 RMK AO2 SLP130 T03110183 10311 20167 57007 TSNO
KADG 181653Z AUTO VRB06KT 9SM CLR 29/18 A2994 RMK AO2 SLP133 T02940178 TSNO
KADG 181553Z AUTO VRB06KT 10SM CLR 28/17 A2994 RMK AO2 SLP136 T02830167 TSNO
KADG 181453Z AUTO 21004KT 10SM CLR 27/17 A2995 RMK AO2 SLP140 T02670172 56003 TSNO
KADG 181353Z AUTO 28003KT 10SM CLR 23/18 A2995 RMK AO2 SLP140 T02330183 TSNO
KADG 181253Z AUTO 23003KT 10SM CLR 19/18 A2995 RMK AO2 SLP139 T01940183 TSNO
KADG 181153Z AUTO 00000KT 8SM CLR 17/16 A2996 RMK AO2 SLP143 T01670161 10194 20161 51013 TSNO
KADG 181053Z AUTO 00000KT 10SM CLR 16/16 A2995 RMK AO2 SLP138 T01610156 TSNO
KADG 180953Z AUTO 00000KT 7SM CLR 17/16 A2994 RMK AO2 SLP135 T01720161 TSNO
KADG 180853Z AUTO 00000KT 7SM CLR 18/17 A2992 RMK AO2 SLP130 T01780172 55001 TSNO
KADG 180753Z AUTO 30003KT 9SM CLR 19/18 A2992 RMK AO2 SLP127 T01890183 TSNO
KADG 180653Z AUTO 30003KT 10SM CLR 18/17 A2992 RMK AO2 SLP128 T01830172 TSNO
KADG 180553Z AUTO 30005KT 10SM CLR 19/18 A2993 RMK AO2 SLP130 T01940183 10244 20183 50001 TSNO
KADG 180453Z AUTO 00000KT 10SM CLR 19/18 A2993 RMK AO2 SLP133 T01940183 403000167 TSNO
KADG 180353Z AUTO 00000KT 10SM CLR 19/18 A2993 RMK AO2 SLP132 T01940183 TSNO
KADG 180253Z AUTO 00000KT 10SM CLR 20/19 A2992 RMK AO2 SLP130 T02000189 53007 TSNO
KADG 180153Z AUTO 00000KT 10SM CLR 21/19 A2992 RMK AO2 SLP129 T02110194 TSNO
KADG 180053Z AUTO 00000KT 10SM CLR 23/20 A2991 RMK AO2 SLP125 T02330200 TSNO
KADG 172353Z AUTO 16003KT 10SM CLR 24/20 A2990 RMK AO2 SLP124 T02440200 10300 20244 53007 TSNO
KADG 172253Z AUTO 12003KT 10SM BKN049 28/19 A2989 RMK AO2 SLP119 T02830189 TSNO
KADG 172153Z AUTO 00000KT 10SM BKN045 BKN060 29/19 A2988 RMK AO2 SLP115 T02940189 TSNO
KADG 172053Z AUTO 00000KT 10SM FEW043 29/18 A2988 RMK AO2 SLP116 T02890183 56018 TSNO
KADG 171953Z AUTO 09004KT 10SM BKN043 29/19 A2990 RMK AO2 SLP120 T02940189 TSNO
KADG 171853Z AUTO 02005KT 10SM FEW040 29/18 A2991 RMK AO2 SLP126 T02940183 TSNO
KADG 171753Z AUTO 06006KT 10SM BKN038 28/18 A2994 RMK AO2 SLP133 T02830183 10294 20172 58018 TSNO
KADG 171653Z AUTO VRB05KT 10SM FEW027 28/20 A2995 RMK AO2 SLP140 T02830200 TSNO
KADG 171553Z AUTO 14004KT 10SM SCT120 25/20 A2998 RMK AO2 SLP148 T02500200 TSNO
KADG 171453Z AUTO 11004KT 10SM CLR 24/20 A2999 RMK AO2 SLP153 T02440200 58003 TSNO
KADG 171353Z AUTO 11003KT 10SM CLR 21/20 A2999 RMK AO2 SLP155 T02110200 TSNO
KADG 171336Z AUTO 00000KT 10SM SCT002 21/20 A2999 RMK AO2 T02060200 TSNO
KADG 171314Z AUTO 00000KT 3SM BR OVC002 19/19 A2999 RMK AO2 T01940194 TSNO
KADG 171311Z AUTO 00000KT 1 3/4SM BR OVC002 19/19 A2999 RMK AO2 T01940194 TSNO
KADG 171253Z AUTO 01003KT 1/4SM FG VV001 18/18 A3000 RMK AO2 SLP156 T01830178 TSNO
KADG 171153Z AUTO 00000KT 1/2SM FG VV002 17/17 A3000 RMK AO2 SLP157 T01720167 10189 20167 55003 TSNO
KADG 171136Z AUTO 02004KT 1/2SM FG VV002 17/17 A3000 RMK AO2 T01670167 TSNO
KADG 171123Z AUTO 00000KT 1 1/4SM BR OVC002 17/17 A3000 RMK AO2 T01720167 TSNO
KADG 171053Z AUTO 01003KT 1/2SM FG VV002 17/17 A3000 RMK AO2 SLP156 T01720172 TSNO
KADG 170953Z AUTO 04003KT 1/2SM FG VV002 18/18 A3000 RMK AO2 SLP157 T01780178 TSNO